createdAt,value
2022-09-03T00:01:33.493Z,9.40
2022-09-03T00:04:04.514Z,9.30
2022-09-03T00:06:36.954Z,9.20
2022-09-03T00:09:17.805Z,9.20
2022-09-03T00:12:12.556Z,9.10
2022-09-03T00:15:04.308Z,9.00
2022-09-03T00:17:46.433Z,9.00
2022-09-03T00:20:34.646Z,9.00
2022-09-03T00:23:04.477Z,8.90
2022-09-03T00:25:47.818Z,8.80
2022-09-03T00:28:20.162Z,8.70
2022-09-03T00:30:57.428Z,8.80
2022-09-03T00:33:27.074Z,8.70
2022-09-03T00:36:03.279Z,8.80
2022-09-03T00:38:31.375Z,8.80
2022-09-03T00:41:22.443Z,8.80
2022-09-03T00:44:04.298Z,8.70
2022-09-03T00:46:42.068Z,8.70
2022-09-03T00:49:34.476Z,8.70
2022-09-03T00:52:12.736Z,8.70
2022-09-03T00:55:15.537Z,8.70
2022-09-03T00:57:54.477Z,8.70
2022-09-03T01:00:21.608Z,8.60
2022-09-03T01:03:10.069Z,8.60
2022-09-03T01:06:03.676Z,8.60
2022-09-03T01:11:27.702Z,8.50
2022-09-03T01:14:02.927Z,8.50
2022-09-03T01:16:35.764Z,8.50
2022-09-03T01:19:33.395Z,8.50
2022-09-03T01:22:20.333Z,8.50
2022-09-03T01:25:11.981Z,8.50
2022-09-03T01:27:45.038Z,8.40
2022-09-03T01:30:18.114Z,8.40
2022-09-03T01:32:54.153Z,8.40
2022-09-03T01:35:46.183Z,8.40
2022-09-03T01:38:54.858Z,8.30
2022-09-03T01:42:02.364Z,8.20
2022-09-03T01:44:40.686Z,8.10
2022-09-03T01:47:13.250Z,8.20
2022-09-03T01:50:03.451Z,8.20
2022-09-03T01:52:40.386Z,8.20
2022-09-03T01:55:14.224Z,8.20
2022-09-03T01:57:44.463Z,8.20
2022-09-03T02:00:14.040Z,8.10
2022-09-03T02:02:43.730Z,8.10
2022-09-03T02:05:16.297Z,8.00
2022-09-03T02:07:48.314Z,8.00
2022-09-03T02:10:19.106Z,8.00
2022-09-03T02:12:57.219Z,7.90
2022-09-03T02:15:24.459Z,7.80
2022-09-03T02:17:53.151Z,7.80
2022-09-03T02:20:21.276Z,7.70
2022-09-03T02:22:49.058Z,7.80
2022-09-03T02:25:17.164Z,7.70
2022-09-03T02:27:44.620Z,7.80
2022-09-03T02:30:12.035Z,7.80
2022-09-03T02:32:39.130Z,7.80
2022-09-03T02:35:07.057Z,7.80
2022-09-03T02:37:34.336Z,7.80
2022-09-03T02:40:02.452Z,7.80
2022-09-03T02:42:29.507Z,7.80
2022-09-03T02:45:00.794Z,7.80
2022-09-03T02:47:31.734Z,7.80
2022-09-03T02:49:58.788Z,7.70
2022-09-03T02:52:25.810Z,7.70
2022-09-03T02:54:52.873Z,7.80
2022-09-03T02:57:27.433Z,7.80
2022-09-03T02:59:56.164Z,7.80
2022-09-03T03:02:23.229Z,7.80
2022-09-03T03:04:50.265Z,7.80
2022-09-03T03:07:17.274Z,7.70
2022-09-03T03:09:44.325Z,7.70
2022-09-03T03:12:11.411Z,7.50
2022-09-03T03:14:38.443Z,7.60
2022-09-03T03:17:05.612Z,7.60
2022-09-03T03:19:32.787Z,7.70
2022-09-03T03:22:00.011Z,7.60
2022-09-03T03:24:27.072Z,7.60
2022-09-03T03:26:58.256Z,7.50
2022-09-03T03:29:25.520Z,7.50
2022-09-03T03:31:52.757Z,7.40
2022-09-03T03:34:19.809Z,7.30
2022-09-03T03:36:46.876Z,7.30
2022-09-03T03:39:14.819Z,7.20
2022-09-03T03:41:41.908Z,7.20
2022-09-03T03:44:09.126Z,7.20
2022-09-03T03:46:38.013Z,7.10
2022-09-03T03:49:06.901Z,7.10
2022-09-03T03:51:34.772Z,7.10
2022-09-03T03:54:04.964Z,7.20
2022-09-03T03:56:32.407Z,7.20
2022-09-03T03:58:59.800Z,7.10
2022-09-03T04:01:27.247Z,7.10
2022-09-03T04:03:58.059Z,7.10
2022-09-03T04:06:25.127Z,7.10
2022-09-03T04:08:52.255Z,7.10
2022-09-03T04:11:20.898Z,7.10
2022-09-03T04:13:48.347Z,7.20
2022-09-03T04:16:18.602Z,7.10
2022-09-03T04:18:45.859Z,7.00
2022-09-03T04:21:14.616Z,7.10
2022-09-03T04:23:43.113Z,7.10
2022-09-03T04:26:11.393Z,7.10
2022-09-03T04:28:38.716Z,7.10
2022-09-03T04:31:07.410Z,7.10
2022-09-03T04:33:35.842Z,7.10
2022-09-03T04:36:07.617Z,7.10
2022-09-03T04:38:36.084Z,7.10
2022-09-03T04:41:03.202Z,7.10
2022-09-03T04:43:30.560Z,7.10
2022-09-03T04:46:01.642Z,7.00
2022-09-03T04:48:29.642Z,7.00
2022-09-03T04:51:05.459Z,7.00
2022-09-03T04:53:37.634Z,7.00
2022-09-03T04:56:05.414Z,7.00
2022-09-03T04:58:32.477Z,7.00
2022-09-03T05:01:07.330Z,7.00
2022-09-03T05:03:34.659Z,7.10
2022-09-03T05:06:03.600Z,7.20
2022-09-03T05:08:30.583Z,7.30
2022-09-03T05:11:01.332Z,7.20
2022-09-03T05:13:28.792Z,7.20
2022-09-03T05:16:03.342Z,7.30
2022-09-03T05:18:30.473Z,7.50
2022-09-03T05:21:01.323Z,7.60
2022-09-03T05:23:29.096Z,7.60
2022-09-03T05:26:02.630Z,7.70
2022-09-03T05:28:30.792Z,7.80
2022-09-03T05:31:02.156Z,7.90
2022-09-03T05:33:29.378Z,7.90
2022-09-03T05:36:02.308Z,7.90
2022-09-03T05:38:29.566Z,8.00
2022-09-03T05:41:00.962Z,8.10
2022-09-03T05:43:28.387Z,8.30
2022-09-03T05:46:15.685Z,8.40
2022-09-03T05:48:43.331Z,8.50
2022-09-03T05:51:16.537Z,8.60
2022-09-03T05:53:45.103Z,8.70
2022-09-03T05:56:19.959Z,8.90
2022-09-03T05:58:50.863Z,8.90
2022-09-03T06:01:20.179Z,9.00
2022-09-03T06:03:48.798Z,9.10
2022-09-03T06:06:15.854Z,9.20
2022-09-03T06:08:45.290Z,9.30
2022-09-03T06:11:12.822Z,9.40
2022-09-03T06:13:40.062Z,9.50
2022-09-03T06:16:07.656Z,9.60
2022-09-03T06:18:34.740Z,9.70
2022-09-03T06:21:03.409Z,9.80
2022-09-03T06:23:30.834Z,9.90
2022-09-03T06:26:05.102Z,10.00
2022-09-03T06:28:34.798Z,10.10
2022-09-03T06:31:02.530Z,10.20
2022-09-03T06:33:33.982Z,10.40
2022-09-03T06:36:03.895Z,10.50
2022-09-03T06:38:38.123Z,10.60
2022-09-03T06:41:13.276Z,10.80
2022-09-03T06:43:41.514Z,10.90
2022-09-03T06:46:16.225Z,11.00
2022-09-03T06:48:45.570Z,11.20
2022-09-03T06:51:23.313Z,11.30
2022-09-03T06:53:51.772Z,11.50
2022-09-03T06:56:26.518Z,11.70
2022-09-03T06:58:57.978Z,11.80
2022-09-03T07:01:31.399Z,11.90
2022-09-03T07:04:01.398Z,12.10
2022-09-03T07:06:33.297Z,12.30
2022-09-03T07:09:00.427Z,12.50
2022-09-03T07:11:31.465Z,12.60
2022-09-03T07:13:58.778Z,13.10
2022-09-03T07:16:26.841Z,13.10
2022-09-03T07:18:54.202Z,13.20
2022-09-03T07:21:23.121Z,13.40
2022-09-03T07:23:52.067Z,13.70
2022-09-03T07:26:24.023Z,13.90
2022-09-03T07:28:51.195Z,14.10
2022-09-03T07:31:26.345Z,14.40
2022-09-03T07:34:00.252Z,14.50
2022-09-03T07:36:34.303Z,14.60
2022-09-03T07:39:04.118Z,14.80
2022-09-03T07:41:33.430Z,15.10
2022-09-03T07:44:05.701Z,15.30
2022-09-03T07:46:34.351Z,15.50
2022-09-03T07:49:05.210Z,15.60
2022-09-03T07:51:36.710Z,15.70
2022-09-03T07:54:07.091Z,15.80
2022-09-03T07:56:35.305Z,15.90
2022-09-03T07:59:03.549Z,16.00
2022-09-03T08:01:33.615Z,16.10
2022-09-03T08:04:01.157Z,16.30
2022-09-03T08:06:29.059Z,16.30
2022-09-03T08:09:05.055Z,16.40
2022-09-03T08:11:33.243Z,16.50
2022-09-03T08:14:06.749Z,16.60
2022-09-03T08:16:49.610Z,16.70
2022-09-03T08:19:18.568Z,16.80
2022-09-03T08:21:46.676Z,16.80
2022-09-03T08:24:15.594Z,16.90
2022-09-03T08:26:46.363Z,17.00
2022-09-03T08:29:17.627Z,17.00
2022-09-03T08:31:44.748Z,17.10
2022-09-03T08:34:13.338Z,17.30
2022-09-03T08:36:42.256Z,17.40
2022-09-03T08:39:10.587Z,17.50
2022-09-03T08:42:29.288Z,17.70
2022-09-03T08:45:01.327Z,17.70
2022-09-03T08:47:36.022Z,17.80
2022-09-03T08:50:06.300Z,18.00
2022-09-03T08:52:54.691Z,18.10
2022-09-03T08:55:54.402Z,18.20
2022-09-03T08:58:28.039Z,18.30
2022-09-03T09:01:06.338Z,18.50
2022-09-03T09:03:43.042Z,18.50
2022-09-03T09:06:43.242Z,18.70
2022-09-03T09:09:10.865Z,18.80
2022-09-03T09:11:47.386Z,18.90
2022-09-03T09:15:00.535Z,19.00
2022-09-03T09:17:33.859Z,19.30
2022-09-03T09:20:10.154Z,19.30
2022-09-03T09:22:39.757Z,19.50
2022-09-03T09:25:14.454Z,19.60
2022-09-03T09:28:01.290Z,19.80
2022-09-03T09:30:31.831Z,19.80
2022-09-03T09:33:00.744Z,19.90
2022-09-03T09:35:27.861Z,20.00
2022-09-03T09:37:56.661Z,20.00
2022-09-03T09:40:45.078Z,20.20
2022-09-03T09:43:16.315Z,20.40
2022-09-03T09:45:51.918Z,20.50
2022-09-03T09:48:31.585Z,20.50
2022-09-03T09:51:13.408Z,20.60
2022-09-03T09:53:41.046Z,20.60
2022-09-03T09:56:08.513Z,20.40
2022-09-03T09:58:35.581Z,20.50
2022-09-03T10:01:04.168Z,20.50
2022-09-03T10:03:35.695Z,20.60
2022-09-03T10:06:25.053Z,20.70
2022-09-03T10:08:53.150Z,20.60
2022-09-03T10:11:20.496Z,20.80
2022-09-03T10:13:48.700Z,21.00
2022-09-03T10:16:28.137Z,21.10
2022-09-03T10:19:09.906Z,21.30
2022-09-03T10:21:58.602Z,21.50
2022-09-03T10:24:28.399Z,21.70
2022-09-03T10:26:55.685Z,21.80
2022-09-03T10:29:23.546Z,21.90
2022-09-03T10:32:04.948Z,22.00
2022-09-03T10:34:38.058Z,22.00
2022-09-03T10:37:32.966Z,22.00
2022-09-03T10:40:12.067Z,22.20
2022-09-03T10:43:06.654Z,22.20
2022-09-03T10:45:52.519Z,22.20
2022-09-03T10:48:38.626Z,22.30
2022-09-03T10:51:06.918Z,22.40
2022-09-03T10:53:54.922Z,22.50
2022-09-03T10:56:51.126Z,22.70
2022-09-03T10:59:33.955Z,22.90
2022-09-03T11:02:19.515Z,23.00
2022-09-03T11:04:59.073Z,23.00
2022-09-03T11:07:40.435Z,23.10
2022-09-03T11:10:07.535Z,23.30
2022-09-03T11:12:40.886Z,23.40
2022-09-03T11:15:18.717Z,23.40
2022-09-03T11:17:51.285Z,23.40
2022-09-03T11:20:23.273Z,23.50
2022-09-03T11:22:53.727Z,23.50
2022-09-03T11:25:26.070Z,23.50
2022-09-03T11:28:37.073Z,23.50
2022-09-03T11:31:13.823Z,23.60
2022-09-03T11:33:59.283Z,23.80
2022-09-03T11:36:31.642Z,24.10
2022-09-03T11:38:59.236Z,24.40
2022-09-03T11:41:35.957Z,24.70
2022-09-03T11:44:18.593Z,24.80
2022-09-03T11:46:56.177Z,25.10
2022-09-03T11:49:32.068Z,25.30
2022-09-03T11:52:01.621Z,25.60
2022-09-03T11:54:31.606Z,26.20
2022-09-03T11:57:15.357Z,26.40
2022-09-03T11:59:43.308Z,26.80
2022-09-03T12:02:30.350Z,26.90
2022-09-03T12:05:07.820Z,26.90
2022-09-03T12:08:05.407Z,27.00
2022-09-03T12:10:55.469Z,27.20
2022-09-03T12:13:51.113Z,27.30
2022-09-03T12:16:42.026Z,27.30
2022-09-03T12:19:22.466Z,27.30
2022-09-03T12:21:51.680Z,27.20
2022-09-03T12:24:19.536Z,27.50
2022-09-03T12:26:46.617Z,27.60
2022-09-03T12:29:27.934Z,27.90
2022-09-03T12:31:56.678Z,28.40
2022-09-03T12:34:23.622Z,28.40
2022-09-03T12:36:51.979Z,28.70
2022-09-03T12:42:17.015Z,28.70
2022-09-03T12:44:43.961Z,29.00
2022-09-03T12:50:04.697Z,29.60
2022-09-03T12:52:33.225Z,29.60
2022-09-03T12:55:06.414Z,29.70
2022-09-03T12:58:03.891Z,30.10
2022-09-03T13:00:33.203Z,30.20
2022-09-03T13:03:07.611Z,29.50
2022-09-03T13:05:42.692Z,27.70
2022-09-03T13:08:09.862Z,26.80
2022-09-03T13:10:42.123Z,27.10
2022-09-03T13:13:26.589Z,27.70
2022-09-03T13:16:12.375Z,28.20
2022-09-03T13:19:06.704Z,29.30
2022-09-03T13:21:36.503Z,29.70
2022-09-03T13:24:09.227Z,29.30
2022-09-03T13:26:54.161Z,28.50
2022-09-03T13:29:27.685Z,28.20
2022-09-03T13:32:05.343Z,28.40
2022-09-03T13:34:37.296Z,28.90
2022-09-03T13:37:17.554Z,29.30
2022-09-03T13:39:54.195Z,29.10
2022-09-03T13:42:25.035Z,28.00
2022-09-03T13:45:00.582Z,27.80
2022-09-03T13:48:10.925Z,28.20
2022-09-03T13:51:07.063Z,28.80
2022-09-03T13:53:42.685Z,29.10
2022-09-03T13:56:31.357Z,28.10
2022-09-03T13:59:14.251Z,27.30
2022-09-03T14:02:06.309Z,27.20
2022-09-03T14:04:39.539Z,27.90
2022-09-03T14:07:14.214Z,28.30
2022-09-03T14:09:45.374Z,28.50
2022-09-03T14:12:56.734Z,28.80
2022-09-03T14:15:29.828Z,28.80
2022-09-03T14:17:57.066Z,28.30
2022-09-03T14:20:41.963Z,28.70
2022-09-03T14:23:45.803Z,28.40
2022-09-03T14:26:37.864Z,28.50
2022-09-03T14:29:16.357Z,28.40
2022-09-03T14:32:02.213Z,28.00
2022-09-03T14:34:57.398Z,27.80
2022-09-03T14:37:46.238Z,27.60
2022-09-03T14:40:47.117Z,27.70
2022-09-03T14:43:16.990Z,27.70
2022-09-03T14:46:06.285Z,27.50
2022-09-03T14:49:05.592Z,27.30
2022-09-03T14:52:03.768Z,27.00
2022-09-03T14:55:02.114Z,26.90
2022-09-03T14:57:42.586Z,26.70
2022-09-03T15:00:19.696Z,26.40
2022-09-03T15:03:14.894Z,26.30
2022-09-03T15:06:10.283Z,26.20
2022-09-03T15:08:44.247Z,26.10
2022-09-03T15:11:16.526Z,25.70
2022-09-03T15:13:53.482Z,25.70
2022-09-03T15:16:32.748Z,25.50
2022-09-03T15:19:14.511Z,25.20
2022-09-03T15:22:03.796Z,25.00
2022-09-03T15:24:43.442Z,24.90
2022-09-03T15:27:34.656Z,24.80
2022-09-03T15:30:10.822Z,24.70
2022-09-03T15:32:56.013Z,24.70
2022-09-03T15:35:40.414Z,24.50
2022-09-03T15:38:25.281Z,24.50
2022-09-03T15:40:57.263Z,24.20
2022-09-03T15:43:34.085Z,24.10
2022-09-03T15:46:03.181Z,24.10
2022-09-03T15:48:49.010Z,24.10
2022-09-03T15:51:26.008Z,24.10
2022-09-03T15:54:30.377Z,24.00
2022-09-03T15:57:06.257Z,23.90
2022-09-03T15:59:45.397Z,23.70
2022-09-03T16:02:15.556Z,23.60
2022-09-03T16:05:20.380Z,23.50
2022-09-03T16:08:10.705Z,23.50
2022-09-03T16:10:46.270Z,23.60
2022-09-03T16:13:36.105Z,23.40
2022-09-03T16:16:09.886Z,23.20
2022-09-03T16:18:55.813Z,23.00
2022-09-03T16:21:45.564Z,22.60
2022-09-03T16:24:32.847Z,22.30
2022-09-03T16:27:35.570Z,22.20
2022-09-03T16:30:13.933Z,21.90
2022-09-03T16:33:16.443Z,21.60
2022-09-03T16:35:46.173Z,21.40
2022-09-03T16:38:27.226Z,21.10
2022-09-03T16:41:19.675Z,21.00
2022-09-03T16:44:11.025Z,20.80
2022-09-03T16:46:46.707Z,20.70
2022-09-03T16:49:13.857Z,20.60
2022-09-03T16:52:05.467Z,20.50
2022-09-03T16:54:39.549Z,20.40
2022-09-03T16:57:34.482Z,20.20
2022-09-03T17:00:14.833Z,19.90
2022-09-03T17:02:54.328Z,19.50
2022-09-03T17:05:28.210Z,19.10
2022-09-03T17:08:22.299Z,19.00
2022-09-03T17:25:27.311Z,18.50
2022-09-03T17:28:07.715Z,18.50
2022-09-03T17:30:59.445Z,18.50
2022-09-03T17:34:04.948Z,18.40
2022-09-03T17:36:33.996Z,18.40
2022-09-03T18:10:44.047Z,17.60
2022-09-03T18:13:32.090Z,17.60
2022-09-03T18:16:03.403Z,17.50
2022-09-03T18:45:22.108Z,16.90
2022-09-03T18:48:18.084Z,16.70
2022-09-03T18:51:25.461Z,16.50
2022-09-03T18:54:50.831Z,16.50
2022-09-03T18:57:59.847Z,16.50
2022-09-03T19:00:45.197Z,16.50
2022-09-03T19:03:30.621Z,16.50
2022-09-03T19:06:22.219Z,16.60
2022-09-03T19:09:10.785Z,16.60
2022-09-03T19:12:05.426Z,16.60
2022-09-03T19:15:14.088Z,16.50
2022-09-03T19:18:28.063Z,16.50
2022-09-03T19:21:54.538Z,16.40
2022-09-03T19:24:46.710Z,16.50
2022-09-03T19:28:07.509Z,16.40
2022-09-03T19:31:05.177Z,16.30
2022-09-03T19:33:57.669Z,16.20
2022-09-03T19:36:43.231Z,16.20
2022-09-03T19:39:46.972Z,16.10
2022-09-03T19:42:36.357Z,16.10
2022-09-03T19:46:06.437Z,16.20
2022-09-03T19:49:10.082Z,16.10
2022-09-03T19:52:19.394Z,16.00
2022-09-03T19:55:06.310Z,16.00
2022-09-03T19:57:51.523Z,15.90
2022-09-03T20:00:37.653Z,16.00
2022-09-03T20:03:23.422Z,16.10
2022-09-03T20:06:11.390Z,16.10
2022-09-03T20:08:57.359Z,16.10
2022-09-03T20:11:24.608Z,16.10
2022-09-03T20:14:10.018Z,16.10
2022-09-03T20:17:08.883Z,16.10
2022-09-03T20:19:45.749Z,16.00
2022-09-03T20:22:57.972Z,15.90
2022-09-03T20:25:43.259Z,15.80
2022-09-03T20:28:33.316Z,15.70
2022-09-03T20:31:17.715Z,15.50
2022-09-03T20:34:01.079Z,15.50
2022-09-03T20:36:34.723Z,15.40
2022-09-03T20:39:44.157Z,15.40
2022-09-03T20:42:26.051Z,15.20
2022-09-03T20:45:05.325Z,15.20
2022-09-03T20:48:00.451Z,15.00
2022-09-03T20:50:27.537Z,14.90
2022-09-03T20:53:11.486Z,15.00
2022-09-03T20:55:43.414Z,14.90
2022-09-03T20:58:13.247Z,14.90
2022-09-03T21:00:58.137Z,14.90
2022-09-03T21:03:36.432Z,14.90
2022-09-03T21:06:23.679Z,14.90
2022-09-03T21:09:32.104Z,14.80
2022-09-03T21:12:28.503Z,14.70
2022-09-03T21:15:05.537Z,14.70
2022-09-03T21:17:38.587Z,14.70
2022-09-03T21:20:22.999Z,14.70
2022-09-03T21:23:01.970Z,14.80
2022-09-03T21:25:35.675Z,14.80
2022-09-03T21:28:24.878Z,14.80
2022-09-03T21:31:01.561Z,14.70
2022-09-03T21:33:30.337Z,14.70
2022-09-03T21:36:17.596Z,14.70
2022-09-03T21:38:46.803Z,14.70
2022-09-03T21:41:23.514Z,14.60
2022-09-03T21:44:18.637Z,14.40
2022-09-03T21:46:58.277Z,14.30
2022-09-03T21:50:10.915Z,14.10
2022-09-03T21:52:45.185Z,13.90
2022-09-03T21:55:36.293Z,13.90
2022-09-03T21:58:58.571Z,13.90
2022-09-03T22:01:32.640Z,13.90
2022-09-03T22:03:59.795Z,13.90
2022-09-03T22:06:52.521Z,14.00
2022-09-03T22:09:49.482Z,14.00
2022-09-03T22:12:45.871Z,14.20
2022-09-03T22:15:13.727Z,14.30
2022-09-03T22:17:59.052Z,14.20
2022-09-03T22:20:26.450Z,14.10
2022-09-03T22:22:57.838Z,14.00
2022-09-03T22:25:40.943Z,14.00
2022-09-03T22:28:12.930Z,14.10
2022-09-03T22:30:48.638Z,14.10
2022-09-03T22:33:24.444Z,14.10
2022-09-03T22:36:04.514Z,14.10
2022-09-03T22:38:54.160Z,14.00
2022-09-03T22:41:38.486Z,13.90
2022-09-03T22:44:13.994Z,13.70
2022-09-03T22:46:51.733Z,13.70
2022-09-03T22:49:18.715Z,13.70
2022-09-03T22:51:51.838Z,13.70
2022-09-03T22:54:40.453Z,13.70
2022-09-03T22:57:07.795Z,13.60
2022-09-03T22:59:41.417Z,13.60
2022-09-03T23:02:11.510Z,13.70
2022-09-03T23:04:44.335Z,13.60
2022-09-03T23:07:29.901Z,13.60
2022-09-03T23:10:00.654Z,13.70
2022-09-03T23:12:50.976Z,13.60
2022-09-03T23:15:23.443Z,13.60
2022-09-03T23:17:51.855Z,13.50
2022-09-03T23:20:24.553Z,13.40
2022-09-03T23:23:19.368Z,13.50
2022-09-03T23:25:50.008Z,13.50
2022-09-03T23:28:36.900Z,13.50
2022-09-03T23:31:30.318Z,13.50
2022-09-03T23:33:57.809Z,13.60
2022-09-03T23:37:05.872Z,13.50
2022-09-03T23:39:36.161Z,13.60
2022-09-03T23:42:07.137Z,13.60
2022-09-03T23:45:06.599Z,13.70
2022-09-03T23:48:14.063Z,13.70
2022-09-03T23:51:02.681Z,13.80
2022-09-03T23:53:47.267Z,13.70
2022-09-03T23:56:26.105Z,13.80
2022-09-03T23:59:10.867Z,13.80
